Time;durP1;ratioP1;P1;durP2;ratioP2;P2;SDS_P1;SDS_P2;PMS_P1;PMS_P2;Temp;Humidity;BMP_temperature;BMP_pressure;BME280_temperature;BME280_humidity;BME280_pressure;Samples;Min_cycle;Max_cycle;Signal;HPM_P1;HPM_P2
2022/01/15 00:00:47;;;;;;;27.88;12.32;;;;;;;2.24;95.36;103240.47;5112250;28;20101;-85
2022/01/15 00:03:14;;;;;;;30.23;14.40;;;;;;;2.29;95.15;103255.31;5112910;28;20055;-84
2022/01/15 00:05:40;;;;;;;32.00;14.48;;;;;;;2.22;94.97;103254.88;5112981;28;20019;-84
2022/01/15 00:08:17;;;;;;;32.08;14.35;;;;;;;2.19;95.36;103253.03;5111599;28;20046;-85
2022/01/15 00:10:42;;;;;;;31.08;13.85;;;;;;;2.19;95.15;103250.44;5113019;28;20115;-85
2022/01/15 00:13:13;;;;;;;38.00;17.40;;;;;;;2.13;95.78;103242.44;5112604;28;20039;-84
2022/01/15 00:15:46;;;;;;;37.17;18.00;;;;;;;2.15;96.15;103253.63;5112090;28;20099;-84
2022/01/15 00:18:39;;;;;;;37.80;17.88;;;;;;;2.12;95.48;103245.78;5095106;28;20036;-85
2022/01/15 00:21:16;;;;;;;37.33;17.40;;;;;;;2.15;95.33;103248.50;5096544;28;20482;-84
2022/01/15 00:23:43;;;;;;;38.00;18.15;;;;;;;2.10;96.00;103239.69;5112792;28;20464;-84
2022/01/15 00:26:08;;;;;;;39.67;18.92;;;;;;;2.07;96.02;103235.25;5112473;28;20016;-84
2022/01/15 00:28:34;;;;;;;39.55;18.05;;;;;;;2.08;95.97;103233.56;5112230;28;20102;-85
2022/01/15 00:30:59;;;;;;;40.15;18.42;;;;;;;2.06;96.51;103235.16;5112568;28;20450;-85
2022/01/15 00:33:25;;;;;;;48.35;22.92;;;;;;;1.98;96.21;103229.56;5112315;28;20028;-85
2022/01/15 00:36:03;;;;;;;39.83;18.60;;;;;;;2.03;96.27;103237.56;5112214;28;20024;-85
2022/01/15 00:38:29;;;;;;;44.63;20.67;;;;;;;1.93;96.39;103224.19;5094210;28;20032;-84
2022/01/15 00:40:54;;;;;;;38.72;18.17;;;;;;;1.96;96.30;103228.63;5092500;28;20020;-85
2022/01/15 00:43:24;;;;;;;35.13;15.95;;;;;;;2.02;96.60;103233.22;5091335;28;20376;-85
2022/01/15 00:45:50;;;;;;;33.60;15.98;;;;;;;2.00;96.45;103217.75;5092135;28;20099;-85
2022/01/15 00:48:15;;;;;;;35.50;15.73;;;;;;;2.02;96.40;103221.28;5092195;28;20150;-84
2022/01/15 00:50:41;;;;;;;30.42;13.70;;;;;;;2.02;96.13;103215.31;5092952;28;20039;-84
2022/01/15 00:53:07;;;;;;;31.42;13.80;;;;;;;2.02;95.82;103207.63;5095612;28;20031;-84
2022/01/15 00:55:32;;;;;;;32.97;14.43;;;;;;;1.99;96.35;103208.28;5095882;28;20024;-84
2022/01/15 00:57:58;;;;;;;38.30;16.83;;;;;;;2.00;96.76;103202.38;5094852;28;20044;-84
2022/01/15 01:00:25;;;;;;;40.28;18.10;;;;;;;1.92;96.58;103195.94;5095214;28;20111;-85
2022/01/15 01:03:04;;;;;;;39.90;18.20;;;;;;;1.91;96.59;103195.06;5095267;28;20024;-84
2022/01/15 01:05:29;;;;;;;33.03;14.65;;;;;;;1.96;96.28;103203.03;5095681;28;20476;-85
2022/01/15 01:07:56;;;;;;;38.28;18.05;;;;;;;1.92;96.67;103199.38;5095827;28;20024;-85
2022/01/15 01:13:13;;;;;;;36.20;15.95;;;;;;;1.95;96.42;103198.69;5095470;28;20002;-85
2022/01/15 01:20:04;;;;;;;50.55;21.42;;;;;;;1.88;96.99;103199.09;5060877;28;20032;-85
2022/01/15 01:24:27;;;;;;;34.40;15.18;;;;;;;1.88;96.03;103187.19;5114797;28;20586;-84
2022/01/15 01:27:07;;;;;;;33.50;14.10;;;;;;;1.88;95.98;103178.63;5115141;28;20102;-84
2022/01/15 01:35:04;;;;;;;43.85;19.13;;;;;;;1.73;97.15;103171.81;5115646;28;20027;-84
2022/01/15 01:37:36;;;;;;;45.85;20.52;;;;;;;1.73;96.80;103178.59;5115354;28;20080;-84
2022/01/15 01:40:19;;;;;;;49.03;21.80;;;;;;;1.66;96.91;103170.56;5110936;28;20039;-85
2022/01/15 01:42:55;;;;;;;44.50;19.55;;;;;;;1.70;97.25;103180.19;5114009;28;20028;-85
2022/01/15 01:45:21;;;;;;;;;;;;;;;1.74;97.24;103177.81;5094130;28;20077;-84
2022/01/15 01:47:57;;;;;;;45.40;18.43;;;;;;;1.66;97.42;103165.47;5103846;28;19916;-85
2022/01/15 01:50:25;;;;;;;45.88;19.60;;;;;;;1.76;97.02;103171.13;5114810;28;20115;-84
2022/01/15 01:52:53;;;;;;;46.63;19.83;;;;;;;1.64;97.42;103161.91;5114384;28;20100;-84
2022/01/15 01:55:25;;;;;;;48.67;21.70;;;;;;;1.62;97.71;103166.06;5114759;28;20030;-85
2022/01/15 01:57:51;;;;;;;50.17;20.90;;;;;;;1.64;97.57;103161.91;5114878;28;20044;-85
2022/01/15 02:00:19;;;;;;;42.78;18.80;;;;;;;1.66;97.55;103170.56;5114053;28;20024;-84
2022/01/15 02:02:45;;;;;;;46.20;20.38;;;;;;;1.61;97.53;103156.59;5114538;28;20023;-84
2022/01/15 02:05:11;;;;;;;43.30;18.40;;;;;;;1.59;97.60;103152.19;5114384;28;20106;-85
2022/01/15 02:07:36;;;;;;;40.35;16.50;;;;;;;1.66;97.24;103154.31;5114556;28;20042;-84
2022/01/15 02:10:16;;;;;;;35.72;14.77;;;;;;;1.70;96.94;103156.28;5114558;28;20104;-84
2022/01/15 02:12:43;;;;;;;35.20;14.48;;;;;;;1.75;96.73;103147.16;5096040;28;20039;-85
2022/01/15 02:15:12;;;;;;;42.40;17.65;;;;;;;1.82;95.58;103154.44;5093253;28;20032;-84
2022/01/15 02:17:42;;;;;;;34.80;14.65;;;;;;;1.79;96.20;103150.81;5109661;28;20035;-85
2022/01/15 02:20:37;;;;;;;33.05;14.02;;;;;;;1.81;96.00;103156.88;5113201;28;20035;-84
2022/01/15 02:25:53;;;;;;;28.65;11.70;;;;;;;1.79;96.05;103153.38;5114811;28;20065;-84
2022/01/15 02:28:22;;;;;;;31.73;12.32;;;;;;;1.78;96.08;103144.78;5113478;28;20023;-84
2022/01/15 02:30:52;;;;;;;32.78;12.88;;;;;;;1.76;95.79;103135.28;5114163;28;20100;-84
2022/01/15 02:33:36;;;;;;;33.95;13.35;;;;;;;1.79;95.54;103146.56;5114100;28;20518;-84
2022/01/15 02:36:05;;;;;;;37.75;14.27;;;;;;;1.84;95.77;103145.16;5113644;28;20023;-84
2022/01/15 02:38:31;;;;;;;33.38;13.05;;;;;;;1.75;95.61;103125.81;5114120;28;20034;-85
2022/01/15 02:41:25;;;;;;;33.38;13.20;;;;;;;1.79;95.90;103122.66;5113544;28;20019;-84
2022/01/15 02:43:51;;;;;;;33.20;12.75;;;;;;;1.78;95.60;103115.75;5093721;28;20054;-85
2022/01/15 02:48:00;;;;;;;29.75;11.52;;;;;;;1.76;95.64;103114.78;5093310;28;20111;-84
2022/01/15 02:49:32;;;;;;;27.67;11.02;;;;;;;1.76;95.21;103095.16;5092326;28;20034;-84
2022/01/15 02:51:57;;;;;;;25.38;9.55;;;;;;;1.80;95.83;103092.00;5093892;28;20464;-84
2022/01/15 02:54:23;;;;;;;29.42;11.00;;;;;;;1.81;95.59;103087.75;5093211;28;20027;-84
2022/01/15 02:56:48;;;;;;;36.83;14.90;;;;;;;1.86;95.55;103091.47;5093478;28;20020;-84
2022/01/15 02:59:19;;;;;;;39.25;15.48;;;;;;;1.85;95.49;103093.16;5093147;28;20040;-83
2022/01/15 03:01:45;;;;;;;37.55;16.42;;;;;;;1.85;95.46;103094.81;5093479;28;20115;-84
2022/01/15 03:04:10;;;;;;;40.38;17.25;;;;;;;1.87;95.37;103082.09;5092454;28;20099;-84
2022/01/15 03:06:35;;;;;;;44.78;19.67;;;;;;;1.75;95.27;103077.19;5093241;28;20019;-84
2022/01/15 03:09:01;;;;;;;42.33;17.90;;;;;;;1.72;96.08;103079.56;5094256;28;20046;-84
2022/01/15 03:11:28;;;;;;;45.10;18.98;;;;;;;1.65;96.10;103070.63;5092162;28;20426;-84
2022/01/15 03:13:53;;;;;;;42.88;18.40;;;;;;;1.70;95.85;103064.13;5092580;28;20032;-84
2022/01/15 03:16:27;;;;;;;40.83;18.15;;;;;;;1.73;95.44;103064.28;5092441;28;20095;-83
2022/01/15 03:19:01;;;;;;;42.90;18.65;;;;;;;1.61;96.25;103061.03;5093518;28;20024;-84
2022/01/15 03:21:26;;;;;;;41.90;17.20;;;;;;;1.74;95.59;103062.59;5092944;28;20060;-84
2022/01/15 03:23:51;;;;;;;42.53;18.58;;;;;;;1.66;96.00;103064.72;5092525;28;20468;-84
2022/01/15 03:26:20;;;;;;;39.92;17.02;;;;;;;1.67;96.03;103067.38;5092710;28;20016;-84
2022/01/15 03:28:45;;;;;;;39.22;16.55;;;;;;;1.67;95.36;103059.72;5093199;28;20035;-84
2022/01/15 03:31:11;;;;;;;39.17;17.20;;;;;;;1.64;95.78;103051.84;5091764;28;20024;-84
2022/01/15 03:33:36;;;;;;;41.58;17.20;;;;;;;1.61;95.80;103058.47;5095447;28;20034;-84
2022/01/15 03:36:02;;;;;;;37.67;15.85;;;;;;;1.61;96.08;103061.03;5113355;28;20027;-84
2022/01/15 03:38:27;;;;;;;33.75;14.82;;;;;;;1.58;96.13;103053.16;5112063;28;20396;-84
2022/01/15 03:40:54;;;;;;;34.45;15.45;;;;;;;1.64;95.76;103062.09;5112837;28;20023;-84
2022/01/15 03:43:19;;;;;;;35.55;14.68;;;;;;;1.63;95.82;103055.19;5113149;28;20031;-84
2022/01/15 03:45:44;;;;;;;35.03;14.48;;;;;;;1.73;95.71;103055.72;5112628;28;20028;-84
2022/01/15 03:48:10;;;;;;;36.28;16.25;;;;;;;1.75;95.21;103041.34;5112987;28;20023;-84
2022/01/15 03:50:47;;;;;;;38.95;16.98;;;;;;;1.66;95.69;103052.81;5112949;28;20046;-84
2022/01/15 03:53:13;;;;;;;37.20;16.25;;;;;;;1.65;95.55;103056.19;5112133;28;20016;-84
2022/01/15 03:55:38;;;;;;;39.42;17.80;;;;;;;1.64;95.31;103039.03;5113090;28;20364;-84
2022/01/15 03:58:03;;;;;;;41.97;18.13;;;;;;;1.55;96.19;103038.53;5112719;28;20083;-83
2022/01/15 04:00:29;;;;;;;38.60;16.77;;;;;;;1.49;96.19;103036.50;5112108;28;20111;-84
2022/01/15 04:02:55;;;;;;;39.72;18.13;;;;;;;1.48;96.25;103036.38;5098487;28;20111;-84
2022/01/15 04:05:21;;;;;;;44.10;19.00;;;;;;;1.42;96.45;103038.59;5092269;28;20097;-84
2022/01/15 04:07:59;;;;;;;36.13;16.60;;;;;;;1.40;96.64;103038.53;5091721;28;20035;-84
2022/01/15 04:10:25;;;;;;;39.05;18.45;;;;;;;1.39;96.79;103035.06;5092164;28;20051;-84
2022/01/15 04:12:53;;;;;;;35.85;15.88;;;;;;;1.39;96.74;103029.94;5091958;28;20093;-84
2022/01/15 04:15:20;;;;;;;35.35;15.60;;;;;;;1.47;96.51;103030.41;5092164;28;20031;-84
2022/01/15 04:17:48;;;;;;;32.22;14.07;;;;;;;1.49;96.09;103025.38;5092371;28;20024;-84
2022/01/15 04:20:18;;;;;;;30.20;13.55;;;;;;;1.50;95.78;103012.69;5091520;28;20024;-84
2022/01/15 04:22:55;;;;;;;32.45;13.20;;;;;;;1.57;96.07;103007.88;5092647;28;20020;-84
2022/01/15 04:25:21;;;;;;;26.80;11.88;;;;;;;1.60;95.83;103011.50;5093430;28;20031;-84
2022/01/15 04:27:47;;;;;;;25.83;11.02;;;;;;;1.58;96.20;103002.84;5095567;28;20107;-84
2022/01/15 04:30:14;;;;;;;27.45;12.23;;;;;;;1.62;95.70;103009.91;5096121;28;20032;-84
2022/01/15 04:32:40;;;;;;;26.05;11.48;;;;;;;1.58;95.68;102996.84;5096619;28;20429;-84
2022/01/15 04:35:17;;;;;;;32.47;13.02;;;;;;;1.60;95.74;102998.69;5095034;28;20051;-82
2022/01/15 04:37:49;;;;;;;28.98;12.23;;;;;;;1.60;95.79;102995.28;5096294;28;20024;-84
2022/01/15 04:40:16;;;;;;;24.35;10.00;;;;;;;1.63;95.88;103004.00;5095828;28;20036;-84
2022/01/15 04:42:54;;;;;;;26.33;11.43;;;;;;;1.59;95.79;102993.50;5095446;28;20024;-84
2022/01/15 04:45:28;;;;;;;30.05;12.65;;;;;;;1.63;95.57;102992.91;5095614;28;20012;-84
2022/01/15 04:47:53;;;;;;;35.78;14.70;;;;;;;1.63;95.34;102991.19;5095509;28;20024;-84
2022/01/15 04:50:22;;;;;;;29.65;12.98;;;;;;;1.63;95.26;102990.34;5095619;28;20426;-84
2022/01/15 04:52:47;;;;;;;28.92;12.85;;;;;;;1.69;94.86;102996.66;5095710;28;20024;-84
2022/01/15 04:55:13;;;;;;;27.75;12.07;;;;;;;1.67;95.42;102985.47;5094751;28;20027;-84
2022/01/15 04:57:41;;;;;;;30.13;12.98;;;;;;;1.66;95.88;102988.81;5095426;28;20059;-84
2022/01/15 05:00:18;;;;;;;30.52;13.60;;;;;;;1.61;95.52;102985.13;5103726;28;20031;-84
2022/01/15 05:02:44;;;;;;;31.05;13.27;;;;;;;1.58;95.75;102979.81;5115104;28;20061;-84
2022/01/15 05:05:10;;;;;;;37.47;15.95;;;;;;;1.67;95.08;102976.88;5115843;28;20024;-84
2022/01/15 05:07:36;;;;;;;34.17;15.20;;;;;;;1.60;95.43;102977.34;5115877;28;20361;-83
2022/01/15 05:10:01;;;;;;;32.90;13.57;;;;;;;1.61;95.65;102974.00;5115309;28;20072;-84
2022/01/15 05:12:31;;;;;;;30.23;12.65;;;;;;;1.59;95.63;102976.47;5115259;28;20110;-84
2022/01/15 05:15:06;;;;;;;27.25;10.98;;;;;;;1.61;95.41;102967.19;5116185;28;20369;-84
2022/01/15 05:17:34;;;;;;;26.50;10.93;;;;;;;1.62;95.66;102971.53;5114861;28;20058;-84
2022/01/15 05:19:59;;;;;;;28.17;11.52;;;;;;;1.66;95.29;102968.34;5115887;28;20027;-83
2022/01/15 05:22:24;;;;;;;24.10;9.63;;;;;;;1.69;95.30;102971.06;5115539;28;20558;-84
2022/01/15 05:24:50;;;;;;;22.50;8.45;;;;;;;1.72;95.18;102972.03;5114535;28;20023;-84
2022/01/15 05:27:15;;;;;;;22.33;8.90;;;;;;;1.69;95.64;102958.25;5115193;28;20130;-84
2022/01/15 05:29:41;;;;;;;22.17;8.52;;;;;;;1.73;95.57;102961.00;5110605;28;20028;-84
2022/01/15 05:32:06;;;;;;;29.52;12.75;;;;;;;1.70;95.53;102960.03;5094144;28;20032;-83
2022/01/15 05:34:32;;;;;;;31.65;13.23;;;;;;;1.65;95.70;102950.31;5094890;28;20484;-84
2022/01/15 05:36:57;;;;;;;33.30;13.05;;;;;;;1.66;94.99;102955.53;5094222;28;20020;-83
2022/01/15 05:39:23;;;;;;;33.80;13.93;;;;;;;1.58;95.84;102943.13;5094076;28;20480;-84
2022/01/15 05:41:48;;;;;;;33.05;14.20;;;;;;;1.59;95.85;102947.44;5094931;28;20031;-84
2022/01/15 05:44:13;;;;;;;31.95;13.13;;;;;;;1.61;95.74;102939.03;5093972;28;20020;-83
2022/01/15 05:46:39;;;;;;;31.95;13.52;;;;;;;1.62;95.47;102937.38;5094891;28;20055;-84
2022/01/15 05:49:04;;;;;;;33.17;14.13;;;;;;;1.66;95.08;102931.59;5094769;28;20035;-83
2022/01/15 05:51:31;;;;;;;33.10;15.10;;;;;;;1.63;95.22;102940.00;5093923;28;20481;-83
2022/01/15 05:54:10;;;;;;;31.47;13.37;;;;;;;1.55;95.48;102933.59;5095060;28;20020;-83
2022/01/15 05:56:37;;;;;;;35.20;15.73;;;;;;;1.59;95.27;102927.81;5094686;28;20278;-83
2022/01/15 05:59:03;;;;;;;32.38;13.95;;;;;;;1.55;95.85;102920.78;5110765;28;20040;-84
2022/01/15 06:01:28;;;;;;;32.28;13.43;;;;;;;1.48;95.82;102918.66;5114948;28;20460;-84
2022/01/15 06:03:53;;;;;;;27.88;11.52;;;;;;;1.52;95.55;102910.38;5115071;28;20028;-84
2022/01/15 06:06:19;;;;;;;26.02;11.30;;;;;;;1.54;95.64;102916.47;5113597;28;20024;-84
2022/01/15 06:08:44;;;;;;;27.15;10.73;;;;;;;1.50;95.74;102907.75;5114899;28;20023;-84
2022/01/15 06:11:11;;;;;;;28.00;11.32;;;;;;;1.54;96.00;102919.03;5114542;28;20024;-84
2022/01/15 06:13:46;;;;;;;27.50;12.23;;;;;;;1.53;95.71;102905.34;5113814;28;20022;-83
2022/01/15 06:16:14;;;;;;;35.53;15.00;;;;;;;1.56;95.99;102913.97;5114428;28;20356;-84
2022/01/15 06:18:42;;;;;;;37.25;17.42;;;;;;;1.53;95.93;102909.59;5100931;28;20034;-84
2022/01/15 06:21:08;;;;;;;32.97;15.52;;;;;;;1.58;96.17;102913.25;5093103;28;20032;-84
2022/01/15 06:23:34;;;;;;;38.85;18.27;;;;;;;1.43;96.20;102899.63;5093920;28;20024;-84
2022/01/15 06:26:00;;;;;;;39.22;19.10;;;;;;;1.42;96.73;102901.28;5094276;28;20360;-84
2022/01/15 06:28:25;;;;;;;37.35;17.58;;;;;;;1.39;96.53;102899.47;5094285;28;20040;-84
2022/01/15 06:30:52;;;;;;;36.28;18.17;;;;;;;1.53;96.59;102909.59;5083038;22;20485;-83
2022/01/15 06:33:17;;;;;;;37.80;17.67;;;;;;;1.49;96.08;102908.53;5072470;28;20025;-83
2022/01/15 06:35:55;;;;;;;37.83;17.30;;;;;;;1.49;95.74;102899.97;5073546;28;20040;-84
2022/01/15 06:38:21;;;;;;;35.53;16.15;;;;;;;1.46;95.99;102907.50;5073406;28;20036;-82
2022/01/15 06:40:46;;;;;;;33.78;15.48;;;;;;;1.57;95.83;102903.84;5072897;28;20025;-83
2022/01/15 06:43:11;;;;;;;36.72;16.45;;;;;;;1.45;95.73;102895.50;5073378;28;20054;-82
2022/01/15 06:45:37;;;;;;;31.88;13.98;;;;;;;1.44;96.03;102894.59;5073555;28;20073;-84
2022/01/15 06:48:02;;;;;;;32.67;14.20;;;;;;;1.46;95.68;102892.13;5072190;28;20461;-83
2022/01/15 06:50:28;;;;;;;33.00;15.00;;;;;;;1.46;96.14;102887.88;5072864;28;20036;-87
2022/01/15 06:52:54;;;;;;;30.52;13.15;;;;;;;1.42;95.99;102882.53;5066363;28;20041;-84
2022/01/15 06:55:19;;;;;;;33.13;14.57;;;;;;;1.50;96.32;102886.38;5055404;28;20385;-82
2022/01/15 06:57:56;;;;;;;31.70;13.60;;;;;;;1.48;96.21;102887.97;5073315;28;20031;-82
2022/01/15 07:00:24;;;;;;;29.38;12.55;;;;;;;1.52;95.85;102884.78;5072750;28;20017;-83
2022/01/15 07:02:49;;;;;;;26.05;10.50;;;;;;;1.53;95.91;102894.22;5072364;28;20078;-83
2022/01/15 07:05:14;;;;;;;30.42;12.35;;;;;;;1.54;96.04;102891.75;5073024;28;20040;-83
2022/01/15 07:07:44;;;;;;;29.55;11.70;;;;;;;1.55;95.98;102890.09;5072782;28;20040;-83
2022/01/15 07:10:10;;;;;;;27.42;10.48;;;;;;;1.56;96.22;102891.84;5071929;28;20025;-83
2022/01/15 07:12:35;;;;;;;26.90;10.27;;;;;;;1.65;95.94;102887.22;5071479;28;20035;-83
2022/01/15 07:15:00;;;;;;;31.05;13.02;;;;;;;1.62;95.65;102891.31;5073103;28;20024;-83
2022/01/15 07:17:26;;;;;;;29.33;12.27;;;;;;;1.61;95.65;102892.09;5071738;28;20028;-83
2022/01/15 07:19:51;;;;;;;32.10;13.80;;;;;;;1.60;95.87;102888.63;5073035;28;20056;-83
2022/01/15 07:22:17;;;;;;;37.78;16.20;;;;;;;1.56;95.50;102894.41;5072283;28;20060;-84
2022/01/15 07:24:43;;;;;;;41.88;18.70;;;;;;;1.47;96.46;102897.34;5072746;28;20354;-86
2022/01/15 07:27:25;;;;;;;36.50;16.42;;;;;;;1.40;95.91;102882.44;5069572;28;20523;-85
2022/01/15 07:29:50;;;;;;;31.95;14.10;;;;;;;1.41;96.17;102883.31;5071325;28;20106;-86
2022/01/15 07:32:16;;;;;;;30.20;12.52;;;;;;;1.43;96.04;102890.28;5071960;28;20028;-86
2022/01/15 07:34:41;;;;;;;31.55;13.90;;;;;;;1.46;96.02;102887.03;5072761;28;20029;-86
2022/01/15 07:37:25;;;;;;;29.77;13.50;;;;;;;1.46;95.45;102881.91;5071877;28;20527;-85
2022/01/15 07:39:50;;;;;;;26.67;11.55;;;;;;;1.44;95.69;102888.59;5072858;28;20103;-86
2022/01/15 07:42:16;;;;;;;24.38;10.80;;;;;;;1.41;95.78;102888.44;5072441;28;20046;-86
2022/01/15 07:44:45;;;;;;;21.55;8.93;;;;;;;1.43;95.78;102884.28;5072758;28;20051;-89
2022/01/15 07:47:13;;;;;;;22.77;9.40;;;;;;;1.40;95.60;102879.88;5071582;28;20107;-84
2022/01/15 07:49:40;;;;;;;20.52;8.02;;;;;;;1.39;95.66;102890.91;5072395;28;20028;-85
2022/01/15 07:52:05;;;;;;;22.48;9.77;;;;;;;1.41;95.07;102891.00;5069562;28;20032;-85
2022/01/15 07:54:45;;;;;;;21.67;9.02;;;;;;;1.38;95.55;102901.94;5072190;28;20094;-85
2022/01/15 07:57:11;;;;;;;22.67;9.40;;;;;;;1.33;95.13;102898.22;5072232;28;20107;-85
2022/01/15 07:59:36;;;;;;;22.67;9.95;;;;;;;1.19;95.63;102893.22;5064673;28;20025;-85
2022/01/15 08:02:02;;;;;;;22.20;9.65;;;;;;;1.22;95.45;102889.97;5056506;28;20039;-87
2022/01/15 08:04:28;;;;;;;22.17;8.93;;;;;;;1.19;95.15;102889.78;5056596;28;20052;-85
2022/01/15 08:07:09;;;;;;;20.08;9.02;;;;;;;1.12;95.55;102878.34;5055854;28;20067;-85
2022/01/15 08:09:38;;;;;;;19.98;8.25;;;;;;;1.21;95.44;102890.75;5055624;28;20431;-85
2022/01/15 08:12:04;;;;;;;22.27;10.35;;;;;;;1.10;95.29;102889.28;5055776;28;20087;-84
2022/01/15 08:14:47;;;;;;;21.23;9.43;;;;;;;1.06;95.72;102881.41;5056095;28;20028;-84
2022/01/15 08:17:13;;;;;;;20.77;8.95;;;;;;;0.98;95.73;102879.22;5056011;28;20354;-85
2022/01/15 08:19:38;;;;;;;19.95;8.73;;;;;;;1.00;95.49;102878.53;5056404;28;20082;-84
2022/01/15 08:22:03;;;;;;;20.05;8.23;;;;;;;1.05;95.62;102887.31;5056102;28;20021;-85
2022/01/15 08:24:44;;;;;;;17.83;7.20;;;;;;;1.01;95.73;102877.75;5056030;28;20021;-85
2022/01/15 08:27:09;;;;;;;15.88;5.97;;;;;;;1.08;95.51;102881.50;5055015;28;20025;-85
2022/01/15 08:29:35;;;;;;;17.15;6.72;;;;;;;1.09;96.01;102878.16;5055919;28;20079;-85
2022/01/15 08:32:00;;;;;;;18.77;7.93;;;;;;;1.03;95.67;102878.69;5056172;28;20499;-85
2022/01/15 08:34:25;;;;;;;20.05;8.65;;;;;;;1.15;95.36;102885.28;5054787;28;20032;-85
2022/01/15 08:37:06;;;;;;;18.00;8.02;;;;;;;1.10;95.14;102879.03;5055571;28;20068;-85
2022/01/15 08:39:31;;;;;;;21.80;9.85;;;;;;;0.99;95.21;102880.97;5056116;28;20378;-85
2022/01/15 08:41:57;;;;;;;22.23;10.18;;;;;;;0.91;95.21;102881.44;5055354;28;20058;-85
2022/01/15 08:44:25;;;;;;;21.35;9.88;;;;;;;0.93;95.18;102881.50;5056419;28;20359;-85
2022/01/15 08:47:03;;;;;;;19.48;8.30;;;;;;;0.92;95.21;102880.66;5055776;28;20539;-84
2022/01/15 08:49:28;;;;;;;19.23;8.52;;;;;;;0.91;95.19;102881.44;5055321;28;20017;-86
2022/01/15 08:51:54;;;;;;;19.95;9.13;;;;;;;0.92;95.61;102884.84;5055857;28;20071;-86
2022/01/15 08:54:19;;;;;;;18.80;8.27;;;;;;;0.85;95.36;102878.50;5054896;28;20025;-86
2022/01/15 08:56:45;;;;;;;19.58;8.70;;;;;;;0.90;95.32;102881.34;5055273;28;20065;-86
2022/01/15 08:59:27;;;;;;;21.48;10.10;;;;;;;0.86;95.40;102876.84;5055062;28;20032;-85
2022/01/15 09:01:56;;;;;;;20.48;9.18;;;;;;;0.90;95.22;102883.91;5054915;28;20029;-86
2022/01/15 09:04:39;;;;;;;20.50;8.93;;;;;;;0.88;95.27;102881.25;5054918;28;20100;-85
2022/01/15 09:07:05;;;;;;;24.05;11.07;;;;;;;0.92;94.90;102866.97;5037257;28;20465;-86
2022/01/15 09:09:30;;;;;;;21.70;10.27;;;;;;;0.90;95.16;102882.22;5055752;28;20021;-86
2022/01/15 09:11:56;;;;;;;20.95;9.25;;;;;;;0.89;95.60;102872.78;5054283;28;20120;-86
2022/01/15 09:14:33;;;;;;;20.52;8.73;;;;;;;0.95;95.01;102874.81;5054545;28;20094;-84
2022/01/15 09:16:59;;;;;;;23.27;10.85;;;;;;;1.02;94.98;102878.59;5054760;28;20385;-82
2022/01/15 09:19:24;;;;;;;21.60;9.57;;;;;;;0.96;94.91;102876.59;5054977;28;20021;-83
2022/01/15 09:21:50;;;;;;;24.67;11.25;;;;;;;1.02;95.15;102865.81;5070628;28;20077;-85
2022/01/15 09:24:15;;;;;;;25.90;12.23;;;;;;;0.96;94.47;102868.03;5074034;28;20021;-85
2022/01/15 09:32:08;;;;;;;24.45;11.18;;;;;;;0.91;94.82;102857.53;5072878;28;20094;-85
2022/01/15 09:34:36;;;;;;;26.40;12.88;;;;;;;1.11;94.21;102860.34;5074761;28;20024;-86
2022/01/15 09:37:03;;;;;;;27.92;13.55;;;;;;;1.00;94.40;102855.50;5073951;28;20024;-86
2022/01/15 09:39:28;;;;;;;29.98;14.27;;;;;;;0.93;94.51;102845.72;5074167;28;20039;-86
2022/01/15 09:42:06;;;;;;;30.08;14.38;;;;;;;0.81;94.31;102845.91;5074746;28;20024;-86
2022/01/15 09:44:33;;;;;;;26.20;12.63;;;;;;;0.79;94.54;102844.06;5074222;28;20444;-86
2022/01/15 09:47:00;;;;;;;23.60;10.85;;;;;;;0.79;94.58;102849.19;5074550;28;20021;-83
2022/01/15 09:49:26;;;;;;;22.80;10.40;;;;;;;0.81;94.88;102856.13;5072555;28;20037;-86
2022/01/15 09:52:07;;;;;;;23.30;10.13;;;;;;;0.76;94.88;102837.97;5074042;28;20037;-86
2022/01/15 09:54:33;;;;;;;25.77;12.18;;;;;;;0.83;94.68;102841.78;5075001;28;20032;-86
2022/01/15 09:56:58;;;;;;;26.02;11.68;;;;;;;0.83;94.83;102851.09;5074644;28;20024;-86
2022/01/15 09:59:37;;;;;;;25.27;11.32;;;;;;;0.95;94.62;102850.94;5073223;28;20048;-86
2022/01/15 10:02:05;;;;;;;26.30;11.93;;;;;;;0.88;94.65;102857.38;5074310;28;20027;-86
2022/01/15 10:04:32;;;;;;;29.73;14.48;;;;;;;0.87;94.33;102853.06;5073560;28;20063;-86
2022/01/15 10:07:15;;;;;;;28.90;14.10;;;;;;;0.88;94.11;102849.69;5074346;28;20020;-86
2022/01/15 10:09:42;;;;;;;30.73;14.63;;;;;;;0.82;94.56;102857.91;5072853;28;20035;-86
2022/01/15 10:12:08;;;;;;;27.58;12.55;;;;;;;0.76;94.59;102853.31;5073350;28;20466;-86
2022/01/15 10:14:37;;;;;;;25.48;12.25;;;;;;;0.80;94.57;102862.03;5074104;28;20028;-86
2022/01/15 10:17:19;;;;;;;30.80;15.07;;;;;;;0.85;94.37;102857.19;5074234;28;20032;-86
2022/01/15 10:19:44;;;;;;;31.88;15.90;;;;;;;0.94;94.23;102857.72;5065647;28;20074;-87
2022/01/15 10:22:13;;;;;;;29.98;13.43;;;;;;;0.83;94.48;102857.13;5073841;28;20020;-87
2022/01/15 10:24:41;;;;;;;25.95;12.43;;;;;;;0.84;94.85;102855.41;5073645;28;20035;-88
2022/01/15 10:27:37;;;;;;;28.80;13.68;;;;;;;0.85;94.90;102858.06;5072849;28;20020;-87
2022/01/15 10:30:07;;;;;;;31.23;15.65;;;;;;;0.86;94.43;102851.28;5040743;28;20041;-87
2022/01/15 10:32:39;;;;;;;31.05;15.05;;;;;;;0.81;94.91;102843.34;5053313;28;20033;-87
2022/01/15 10:35:15;;;;;;;29.75;14.70;;;;;;;0.83;95.30;102846.00;5053526;28;20079;-86
2022/01/15 10:37:53;;;;;;;29.58;14.57;;;;;;;0.85;94.82;102840.16;5053133;28;20121;-85
2022/01/15 10:40:22;;;;;;;28.95;13.35;;;;;;;0.88;95.30;102839.47;5052739;28;20163;-85
2022/01/15 10:42:56;;;;;;;31.88;14.45;;;;;;;0.95;94.76;102838.16;5053736;28;20033;-85
2022/01/15 10:45:24;;;;;;;31.23;14.85;;;;;;;0.97;94.65;102837.44;5053195;28;20045;-86
2022/01/15 10:47:53;;;;;;;31.50;15.18;;;;;;;0.94;94.26;102837.25;5053501;28;20052;-86
2022/01/15 10:50:31;;;;;;;31.13;14.60;;;;;;;0.88;94.96;102834.38;5053362;28;20029;-85
2022/01/15 10:52:58;;;;;;;32.20;14.18;;;;;;;0.90;95.22;102827.66;5046980;28;20393;-85
2022/01/15 10:55:27;;;;;;;;;;;;;;;1.01;94.83;102834.28;5052870;28;20438;-85
2022/01/15 10:57:55;;;;;;;33.72;16.23;;;;;;;0.94;94.23;102824.47;5053322;28;19913;-85
2022/01/15 11:00:31;;;;;;;31.67;15.30;;;;;;;0.98;94.78;102833.19;5052912;28;20029;-86
2022/01/15 11:03:05;;;;;;;29.55;14.02;;;;;;;1.05;95.23;102836.19;5053341;28;20024;-86
2022/01/15 11:05:39;;;;;;;33.90;16.48;;;;;;;1.07;94.99;102818.34;5053189;28;20510;-85
2022/01/15 11:08:07;;;;;;;27.63;12.73;;;;;;;1.10;94.90;102822.78;5052004;28;20035;-86
2022/01/15 11:10:45;;;;;;;30.17;14.70;;;;;;;1.08;95.02;102817.56;5053213;28;20106;-83
2022/01/15 11:13:14;;;;;;;31.20;16.00;;;;;;;1.05;95.26;102814.84;5052918;28;20089;-83
2022/01/15 11:15:45;;;;;;;28.73;13.77;;;;;;;1.05;95.14;102809.75;5052391;28;20466;-84
2022/01/15 11:18:16;;;;;;;27.63;13.70;;;;;;;1.06;94.89;102809.81;5068075;28;20063;-83
2022/01/15 11:20:46;;;;;;;30.20;14.27;;;;;;;1.14;94.87;102809.34;5072793;28;20119;-83
2022/01/15 11:23:12;;;;;;;29.05;13.55;;;;;;;1.11;94.95;102802.41;5071839;28;20407;-83
2022/01/15 11:25:38;;;;;;;29.35;14.70;;;;;;;1.18;94.37;102801.94;5072822;28;20027;-82
2022/01/15 11:28:05;;;;;;;30.83;14.23;;;;;;;1.17;94.93;102806.97;5072901;28;20024;-83
2022/01/15 11:30:31;;;;;;;27.17;12.98;;;;;;;1.13;94.68;102798.25;5071699;28;20512;-83
2022/01/15 11:32:56;;;;;;;25.75;12.18;;;;;;;1.27;94.85;102795.56;5072974;28;20032;-83
2022/01/15 11:35:37;;;;;;;26.80;12.13;;;;;;;1.27;94.68;102791.31;5071926;28;20021;-83
2022/01/15 11:38:37;;;;;;;30.30;14.32;;;;;;;1.28;94.73;102789.66;5071935;28;20035;-83
2022/01/15 11:41:03;;;;;;;28.63;13.15;;;;;;;1.23;94.57;102787.72;5072919;28;20099;-83
2022/01/15 11:43:36;;;;;;;28.20;12.77;;;;;;;1.34;94.93;102790.88;5071511;28;20418;-84
2022/01/15 11:46:22;;;;;;;27.90;12.65;;;;;;;1.32;94.85;102781.34;5056018;28;20499;-83
2022/01/15 11:48:48;;;;;;;26.92;12.27;;;;;;;1.35;95.00;102792.63;5052566;28;20425;-85
2022/01/15 11:51:13;;;;;;;27.83;12.65;;;;;;;1.37;94.80;102785.03;5051736;28;20112;-85